sensor_id;sensor_type;location;lat;lon;timestamp;P1;durP1;ratioP1;P2;durP2;ratioP2
11173;SDS011;5643;50.856;12.088;2022-07-04T00:01:45;2.17;;;1.07;;
11173;SDS011;5643;50.856;12.088;2022-07-04T00:04:13;0.90;;;0.90;;
11173;SDS011;5643;50.856;12.088;2022-07-04T00:06:40;1.60;;;1.13;;
11173;SDS011;5643;50.856;12.088;2022-07-04T00:09:08;0.80;;;0.80;;
11173;SDS011;5643;50.856;12.088;2022-07-04T00:11:36;1.03;;;0.80;;
11173;SDS011;5643;50.856;12.088;2022-07-04T00:14:04;0.80;;;0.80;;
11173;SDS011;5643;50.856;12.088;2022-07-04T00:16:34;1.00;;;1.00;;
11173;SDS011;5643;50.856;12.088;2022-07-04T00:19:03;1.23;;;0.90;;
11173;SDS011;5643;50.856;12.088;2022-07-04T00:21:30;1.10;;;1.00;;
11173;SDS011;5643;50.856;12.088;2022-07-04T00:23:59;1.40;;;1.17;;
11173;SDS011;5643;50.856;12.088;2022-07-04T00:26:27;1.37;;;1.20;;
11173;SDS011;5643;50.856;12.088;2022-07-04T00:28:54;1.00;;;1.00;;
11173;SDS011;5643;50.856;12.088;2022-07-04T00:31:22;1.13;;;0.90;;
11173;SDS011;5643;50.856;12.088;2022-07-04T00:33:51;0.70;;;0.70;;
11173;SDS011;5643;50.856;12.088;2022-07-04T00:36:19;1.00;;;1.00;;
11173;SDS011;5643;50.856;12.088;2022-07-04T00:38:47;1.10;;;1.00;;
11173;SDS011;5643;50.856;12.088;2022-07-04T00:41:15;0.83;;;0.80;;
11173;SDS011;5643;50.856;12.088;2022-07-04T00:43:42;1.10;;;1.00;;
11173;SDS011;5643;50.856;12.088;2022-07-04T00:46:10;1.13;;;0.80;;
11173;SDS011;5643;50.856;12.088;2022-07-04T00:48:37;0.60;;;0.60;;
11173;SDS011;5643;50.856;12.088;2022-07-04T00:51:06;0.70;;;0.70;;
11173;SDS011;5643;50.856;12.088;2022-07-04T00:53:34;0.80;;;0.80;;
11173;SDS011;5643;50.856;12.088;2022-07-04T00:56:02;0.80;;;0.80;;
11173;SDS011;5643;50.856;12.088;2022-07-04T00:58:31;1.00;;;1.00;;
11173;SDS011;5643;50.856;12.088;2022-07-04T01:01:00;3.90;;;1.10;;
11173;SDS011;5643;50.856;12.088;2022-07-04T01:03:27;1.23;;;1.10;;
11173;SDS011;5643;50.856;12.088;2022-07-04T01:05:55;1.03;;;1.00;;
11173;SDS011;5643;50.856;12.088;2022-07-04T01:08:24;0.97;;;0.87;;
11173;SDS011;5643;50.856;12.088;2022-07-04T01:10:52;1.20;;;1.10;;
11173;SDS011;5643;50.856;12.088;2022-07-04T01:13:19;1.10;;;1.00;;
11173;SDS011;5643;50.856;12.088;2022-07-04T01:15:48;1.43;;;1.30;;
11173;SDS011;5643;50.856;12.088;2022-07-04T01:18:16;1.00;;;1.00;;
11173;SDS011;5643;50.856;12.088;2022-07-04T01:20:45;1.47;;;0.90;;
11173;SDS011;5643;50.856;12.088;2022-07-04T01:23:15;0.80;;;0.80;;
11173;SDS011;5643;50.856;12.088;2022-07-04T01:25:43;1.30;;;1.00;;
11173;SDS011;5643;50.856;12.088;2022-07-04T01:28:11;0.77;;;0.70;;
11173;SDS011;5643;50.856;12.088;2022-07-04T01:30:38;1.00;;;1.00;;
11173;SDS011;5643;50.856;12.088;2022-07-04T01:33:06;1.67;;;1.20;;
11173;SDS011;5643;50.856;12.088;2022-07-04T01:35:34;2.20;;;1.10;;
11173;SDS011;5643;50.856;12.088;2022-07-04T01:38:03;1.20;;;1.10;;
11173;SDS011;5643;50.856;12.088;2022-07-04T01:40:30;1.00;;;1.00;;
11173;SDS011;5643;50.856;12.088;2022-07-04T01:42:58;1.00;;;0.90;;
11173;SDS011;5643;50.856;12.088;2022-07-04T01:45:26;0.93;;;0.93;;
11173;SDS011;5643;50.856;12.088;2022-07-04T01:47:53;1.47;;;0.97;;
11173;SDS011;5643;50.856;12.088;2022-07-04T01:50:25;1.30;;;1.20;;
11173;SDS011;5643;50.856;12.088;2022-07-04T01:52:53;1.13;;;1.00;;
11173;SDS011;5643;50.856;12.088;2022-07-04T01:55:21;1.70;;;1.10;;
11173;SDS011;5643;50.856;12.088;2022-07-04T01:57:49;1.37;;;1.27;;
11173;SDS011;5643;50.856;12.088;2022-07-04T02:00:17;1.70;;;0.90;;
11173;SDS011;5643;50.856;12.088;2022-07-04T02:03:01;2.20;;;1.20;;
11173;SDS011;5643;50.856;12.088;2022-07-04T02:05:30;0.90;;;0.80;;
11173;SDS011;5643;50.856;12.088;2022-07-04T02:07:59;0.93;;;0.93;;
11173;SDS011;5643;50.856;12.088;2022-07-04T02:10:28;0.80;;;0.80;;
11173;SDS011;5643;50.856;12.088;2022-07-04T02:12:55;0.80;;;0.80;;
11173;SDS011;5643;50.856;12.088;2022-07-04T02:15:28;0.87;;;0.87;;
11173;SDS011;5643;50.856;12.088;2022-07-04T02:17:56;1.00;;;0.90;;
11173;SDS011;5643;50.856;12.088;2022-07-04T02:20:24;1.10;;;1.10;;
11173;SDS011;5643;50.856;12.088;2022-07-04T02:22:53;0.90;;;0.90;;
11173;SDS011;5643;50.856;12.088;2022-07-04T02:25:20;1.00;;;0.90;;
11173;SDS011;5643;50.856;12.088;2022-07-04T02:27:52;0.97;;;0.93;;
11173;SDS011;5643;50.856;12.088;2022-07-04T02:30:20;1.13;;;1.13;;
11173;SDS011;5643;50.856;12.088;2022-07-04T02:32:47;1.10;;;1.10;;
11173;SDS011;5643;50.856;12.088;2022-07-04T02:35:16;1.30;;;1.10;;
11173;SDS011;5643;50.856;12.088;2022-07-04T02:37:43;1.10;;;1.10;;
11173;SDS011;5643;50.856;12.088;2022-07-04T02:40:11;1.00;;;1.00;;
11173;SDS011;5643;50.856;12.088;2022-07-04T02:42:38;1.27;;;1.10;;
11173;SDS011;5643;50.856;12.088;2022-07-04T02:45:08;0.90;;;0.90;;
11173;SDS011;5643;50.856;12.088;2022-07-04T02:47:36;0.97;;;0.97;;
11173;SDS011;5643;50.856;12.088;2022-07-04T02:50:03;1.00;;;0.90;;
11173;SDS011;5643;50.856;12.088;2022-07-04T02:52:32;0.97;;;0.97;;
11173;SDS011;5643;50.856;12.088;2022-07-04T02:54:59;1.30;;;1.10;;
11173;SDS011;5643;50.856;12.088;2022-07-04T02:57:27;1.30;;;1.20;;
11173;SDS011;5643;50.856;12.088;2022-07-04T02:59:55;1.23;;;1.00;;
11173;SDS011;5643;50.856;12.088;2022-07-04T03:02:23;1.30;;;1.20;;
11173;SDS011;5643;50.856;12.088;2022-07-04T03:04:52;1.40;;;1.27;;
11173;SDS011;5643;50.856;12.088;2022-07-04T03:07:19;1.20;;;1.10;;
11173;SDS011;5643;50.856;12.088;2022-07-04T03:09:47;1.70;;;1.10;;
11173;SDS011;5643;50.856;12.088;2022-07-04T03:12:14;2.57;;;1.23;;
11173;SDS011;5643;50.856;12.088;2022-07-04T03:14:41;1.53;;;1.43;;
11173;SDS011;5643;50.856;12.088;2022-07-04T03:17:09;1.67;;;1.57;;
11173;SDS011;5643;50.856;12.088;2022-07-04T03:19:39;2.80;;;2.07;;
11173;SDS011;5643;50.856;12.088;2022-07-04T03:22:06;1.93;;;1.83;;
11173;SDS011;5643;50.856;12.088;2022-07-04T03:24:34;2.17;;;1.97;;
11173;SDS011;5643;50.856;12.088;2022-07-04T03:27:02;2.50;;;2.30;;
11173;SDS011;5643;50.856;12.088;2022-07-04T03:29:30;7.70;;;2.57;;
11173;SDS011;5643;50.856;12.088;2022-07-04T03:31:58;4.57;;;2.33;;
11173;SDS011;5643;50.856;12.088;2022-07-04T03:34:26;2.73;;;2.13;;
11173;SDS011;5643;50.856;12.088;2022-07-04T03:36:54;5.23;;;2.73;;
11173;SDS011;5643;50.856;12.088;2022-07-04T03:39:22;6.17;;;2.90;;
11173;SDS011;5643;50.856;12.088;2022-07-04T03:41:50;6.07;;;3.00;;
11173;SDS011;5643;50.856;12.088;2022-07-04T03:44:17;3.63;;;2.63;;
11173;SDS011;5643;50.856;12.088;2022-07-04T03:46:45;4.53;;;2.70;;
11173;SDS011;5643;50.856;12.088;2022-07-04T03:49:12;4.40;;;2.50;;
11173;SDS011;5643;50.856;12.088;2022-07-04T03:51:40;3.70;;;2.20;;
11173;SDS011;5643;50.856;12.088;2022-07-04T03:54:09;2.30;;;2.10;;
11173;SDS011;5643;50.856;12.088;2022-07-04T03:56:37;2.77;;;2.00;;
11173;SDS011;5643;50.856;12.088;2022-07-04T03:59:04;2.23;;;1.70;;
11173;SDS011;5643;50.856;12.088;2022-07-04T04:01:32;1.90;;;1.63;;
11173;SDS011;5643;50.856;12.088;2022-07-04T04:03:59;1.57;;;1.43;;
11173;SDS011;5643;50.856;12.088;2022-07-04T04:06:44;1.90;;;1.70;;
11173;SDS011;5643;50.856;12.088;2022-07-04T04:09:13;1.37;;;1.20;;
11173;SDS011;5643;50.856;12.088;2022-07-04T04:11:44;1.80;;;1.10;;
11173;SDS011;5643;50.856;12.088;2022-07-04T04:14:12;1.13;;;1.03;;
11173;SDS011;5643;50.856;12.088;2022-07-04T04:16:40;1.37;;;1.27;;
11173;SDS011;5643;50.856;12.088;2022-07-04T04:19:08;1.70;;;1.40;;
11173;SDS011;5643;50.856;12.088;2022-07-04T04:21:35;1.70;;;1.50;;
11173;SDS011;5643;50.856;12.088;2022-07-04T04:24:03;1.93;;;1.20;;
11173;SDS011;5643;50.856;12.088;2022-07-04T04:26:34;1.40;;;1.30;;
11173;SDS011;5643;50.856;12.088;2022-07-04T04:29:02;1.50;;;1.40;;
11173;SDS011;5643;50.856;12.088;2022-07-04T04:31:30;1.30;;;1.20;;
11173;SDS011;5643;50.856;12.088;2022-07-04T04:33:57;1.37;;;1.10;;
11173;SDS011;5643;50.856;12.088;2022-07-04T04:36:25;1.30;;;1.20;;
11173;SDS011;5643;50.856;12.088;2022-07-04T04:38:52;2.33;;;1.10;;
11173;SDS011;5643;50.856;12.088;2022-07-04T04:41:20;1.07;;;0.90;;
11173;SDS011;5643;50.856;12.088;2022-07-04T04:43:50;0.90;;;0.90;;
11173;SDS011;5643;50.856;12.088;2022-07-04T04:46:17;1.27;;;1.20;;
11173;SDS011;5643;50.856;12.088;2022-07-04T04:48:46;1.10;;;1.00;;
11173;SDS011;5643;50.856;12.088;2022-07-04T04:51:14;1.20;;;1.10;;
11173;SDS011;5643;50.856;12.088;2022-07-04T04:53:42;1.17;;;1.10;;
11173;SDS011;5643;50.856;12.088;2022-07-04T04:56:09;1.30;;;1.20;;
11173;SDS011;5643;50.856;12.088;2022-07-04T04:58:40;1.37;;;1.10;;
11173;SDS011;5643;50.856;12.088;2022-07-04T05:01:10;0.90;;;0.90;;
11173;SDS011;5643;50.856;12.088;2022-07-04T05:03:37;1.87;;;1.10;;
11173;SDS011;5643;50.856;12.088;2022-07-04T05:06:05;1.07;;;1.07;;
11173;SDS011;5643;50.856;12.088;2022-07-04T05:08:33;1.50;;;1.20;;
11173;SDS011;5643;50.856;12.088;2022-07-04T05:11:00;1.40;;;1.00;;
11173;SDS011;5643;50.856;12.088;2022-07-04T05:13:28;1.07;;;0.77;;
11173;SDS011;5643;50.856;12.088;2022-07-04T05:15:56;0.70;;;0.70;;
11173;SDS011;5643;50.856;12.088;2022-07-04T05:18:25;0.90;;;0.90;;
11173;SDS011;5643;50.856;12.088;2022-07-04T05:20:53;1.10;;;1.00;;
11173;SDS011;5643;50.856;12.088;2022-07-04T05:23:20;2.07;;;1.30;;
11173;SDS011;5643;50.856;12.088;2022-07-04T05:25:48;1.00;;;1.00;;
11173;SDS011;5643;50.856;12.088;2022-07-04T05:28:15;0.80;;;0.80;;
11173;SDS011;5643;50.856;12.088;2022-07-04T05:30:44;0.80;;;0.80;;
11173;SDS011;5643;50.856;12.088;2022-07-04T05:33:12;0.70;;;0.70;;
11173;SDS011;5643;50.856;12.088;2022-07-04T05:35:42;0.80;;;0.70;;
11173;SDS011;5643;50.856;12.088;2022-07-04T05:38:09;0.73;;;0.60;;
11173;SDS011;5643;50.856;12.088;2022-07-04T05:40:37;0.50;;;0.50;;
11173;SDS011;5643;50.856;12.088;2022-07-04T05:43:04;0.70;;;0.70;;
11173;SDS011;5643;50.856;12.088;2022-07-04T05:45:32;0.90;;;0.77;;
11173;SDS011;5643;50.856;12.088;2022-07-04T05:48:02;0.70;;;0.53;;
11173;SDS011;5643;50.856;12.088;2022-07-04T05:50:30;1.43;;;0.60;;
11173;SDS011;5643;50.856;12.088;2022-07-04T05:52:59;0.70;;;0.70;;
11173;SDS011;5643;50.856;12.088;2022-07-04T05:55:27;0.77;;;0.50;;
11173;SDS011;5643;50.856;12.088;2022-07-04T05:57:54;0.60;;;0.60;;
11173;SDS011;5643;50.856;12.088;2022-07-04T06:00:22;0.68;;;0.65;;
11173;SDS011;5643;50.856;12.088;2022-07-04T06:02:50;0.63;;;0.43;;
11173;SDS011;5643;50.856;12.088;2022-07-04T06:05:17;0.70;;;0.52;;
11173;SDS011;5643;50.856;12.088;2022-07-04T06:07:45;0.60;;;0.50;;
11173;SDS011;5643;50.856;12.088;2022-07-04T06:10:15;0.60;;;0.50;;
11173;SDS011;5643;50.856;12.088;2022-07-04T06:12:43;0.68;;;0.60;;
11173;SDS011;5643;50.856;12.088;2022-07-04T06:15:11;1.15;;;0.90;;
11173;SDS011;5643;50.856;12.088;2022-07-04T06:17:38;0.60;;;0.45;;
11173;SDS011;5643;50.856;12.088;2022-07-04T06:20:06;0.85;;;0.57;;
11173;SDS011;5643;50.856;12.088;2022-07-04T06:22:39;0.60;;;0.60;;
11173;SDS011;5643;50.856;12.088;2022-07-04T06:25:09;0.60;;;0.60;;
11173;SDS011;5643;50.856;12.088;2022-07-04T06:27:39;1.05;;;0.65;;
11173;SDS011;5643;50.856;12.088;2022-07-04T06:30:08;0.77;;;0.45;;
11173;SDS011;5643;50.856;12.088;2022-07-04T06:32:43;0.85;;;0.52;;
11173;SDS011;5643;50.856;12.088;2022-07-04T06:35:11;0.63;;;0.60;;
11173;SDS011;5643;50.856;12.088;2022-07-04T06:37:57;0.50;;;0.50;;
11173;SDS011;5643;50.856;12.088;2022-07-04T06:40:25;1.42;;;0.73;;
11173;SDS011;5643;50.856;12.088;2022-07-04T06:42:54;0.95;;;0.60;;
11173;SDS011;5643;50.856;12.088;2022-07-04T06:45:22;0.68;;;0.50;;
11173;SDS011;5643;50.856;12.088;2022-07-04T06:47:49;0.57;;;0.50;;
11173;SDS011;5643;50.856;12.088;2022-07-04T06:50:17;2.05;;;0.50;;
11173;SDS011;5643;50.856;12.088;2022-07-04T06:52:45;1.10;;;0.77;;
11173;SDS011;5643;50.856;12.088;2022-07-04T06:55:13;1.00;;;0.60;;
11173;SDS011;5643;50.856;12.088;2022-07-04T06:57:40;0.50;;;0.50;;
11173;SDS011;5643;50.856;12.088;2022-07-04T07:00:11;0.93;;;0.60;;
11173;SDS011;5643;50.856;12.088;2022-07-04T07:02:39;0.52;;;0.52;;
11173;SDS011;5643;50.856;12.088;2022-07-04T07:05:07;1.55;;;0.77;;
11173;SDS011;5643;50.856;12.088;2022-07-04T07:07:35;1.20;;;0.40;;
11173;SDS011;5643;50.856;12.088;2022-07-04T07:10:02;1.02;;;0.52;;
11173;SDS011;5643;50.856;12.088;2022-07-04T07:12:32;0.55;;;0.50;;
11173;SDS011;5643;50.856;12.088;2022-07-04T07:15:00;0.50;;;0.50;;
11173;SDS011;5643;50.856;12.088;2022-07-04T07:17:30;0.63;;;0.43;;
11173;SDS011;5643;50.856;12.088;2022-07-04T07:19:58;0.93;;;0.52;;
11173;SDS011;5643;50.856;12.088;2022-07-04T07:22:29;0.70;;;0.50;;
11173;SDS011;5643;50.856;12.088;2022-07-04T07:24:57;0.40;;;0.40;;
11173;SDS011;5643;50.856;12.088;2022-07-04T07:27:24;0.60;;;0.50;;
11173;SDS011;5643;50.856;12.088;2022-07-04T07:29:52;0.40;;;0.40;;
11173;SDS011;5643;50.856;12.088;2022-07-04T07:32:19;0.63;;;0.47;;
11173;SDS011;5643;50.856;12.088;2022-07-04T07:34:48;0.40;;;0.40;;
11173;SDS011;5643;50.856;12.088;2022-07-04T07:37:16;0.50;;;0.50;;
11173;SDS011;5643;50.856;12.088;2022-07-04T07:39:45;0.77;;;0.50;;
11173;SDS011;5643;50.856;12.088;2022-07-04T07:42:13;1.15;;;0.60;;
11173;SDS011;5643;50.856;12.088;2022-07-04T07:44:42;0.50;;;0.50;;
11173;SDS011;5643;50.856;12.088;2022-07-04T07:47:11;0.30;;;0.30;;
11173;SDS011;5643;50.856;12.088;2022-07-04T07:49:39;1.05;;;0.63;;
11173;SDS011;5643;50.856;12.088;2022-07-04T07:52:09;1.08;;;0.50;;
11173;SDS011;5643;50.856;12.088;2022-07-04T07:54:36;0.52;;;0.40;;
11173;SDS011;5643;50.856;12.088;2022-07-04T07:57:04;1.05;;;0.55;;
11173;SDS011;5643;50.856;12.088;2022-07-04T07:59:32;0.50;;;0.40;;
11173;SDS011;5643;50.856;12.088;2022-07-04T08:02:00;0.52;;;0.47;;
11173;SDS011;5643;50.856;12.088;2022-07-04T08:04:28;0.50;;;0.50;;
11173;SDS011;5643;50.856;12.088;2022-07-04T08:07:01;0.95;;;0.50;;
11173;SDS011;5643;50.856;12.088;2022-07-04T08:09:34;0.40;;;0.40;;
11173;SDS011;5643;50.856;12.088;2022-07-04T08:12:02;0.82;;;0.40;;
11173;SDS011;5643;50.856;12.088;2022-07-04T08:14:32;1.77;;;0.90;;
11173;SDS011;5643;50.856;12.088;2022-07-04T08:17:00;0.95;;;0.60;;
11173;SDS011;5643;50.856;12.088;2022-07-04T08:19:31;0.95;;;0.50;;
11173;SDS011;5643;50.856;12.088;2022-07-04T08:22:02;0.60;;;0.50;;
11173;SDS011;5643;50.856;12.088;2022-07-04T08:24:31;2.00;;;0.60;;
11173;SDS011;5643;50.856;12.088;2022-07-04T08:26:59;1.60;;;0.90;;
11173;SDS011;5643;50.856;12.088;2022-07-04T08:29:26;2.63;;;0.80;;
11173;SDS011;5643;50.856;12.088;2022-07-04T08:32:01;2.33;;;0.80;;
11173;SDS011;5643;50.856;12.088;2022-07-04T08:34:28;0.93;;;0.68;;
11173;SDS011;5643;50.856;12.088;2022-07-04T08:36:57;0.40;;;0.40;;
11173;SDS011;5643;50.856;12.088;2022-07-04T08:39:24;1.45;;;0.60;;
11173;SDS011;5643;50.856;12.088;2022-07-04T08:41:54;0.68;;;0.60;;
11173;SDS011;5643;50.856;12.088;2022-07-04T08:44:28;0.70;;;0.50;;
11173;SDS011;5643;50.856;12.088;2022-07-04T08:46:57;0.65;;;0.50;;
11173;SDS011;5643;50.856;12.088;2022-07-04T08:49:27;0.70;;;0.63;;
11173;SDS011;5643;50.856;12.088;2022-07-04T08:51:59;0.57;;;0.47;;
11173;SDS011;5643;50.856;12.088;2022-07-04T08:54:30;0.60;;;0.38;;
11173;SDS011;5643;50.856;12.088;2022-07-04T08:57:18;0.65;;;0.50;;
11173;SDS011;5643;50.856;12.088;2022-07-04T09:00:03;0.73;;;0.60;;
11173;SDS011;5643;50.856;12.088;2022-07-04T09:02:35;1.00;;;0.40;;
11173;SDS011;5643;50.856;12.088;2022-07-04T09:05:03;2.28;;;0.60;;
11173;SDS011;5643;50.856;12.088;2022-07-04T09:07:33;0.47;;;0.47;;
11173;SDS011;5643;50.856;12.088;2022-07-04T09:10:01;1.27;;;0.50;;
11173;SDS011;5643;50.856;12.088;2022-07-04T09:12:32;1.85;;;0.60;;
11173;SDS011;5643;50.856;12.088;2022-07-04T09:15:00;0.80;;;0.68;;
11173;SDS011;5643;50.856;12.088;2022-07-04T09:17:28;0.68;;;0.60;;
11173;SDS011;5643;50.856;12.088;2022-07-04T09:20:13;1.05;;;0.73;;
11173;SDS011;5643;50.856;12.088;2022-07-04T09:22:41;0.30;;;0.30;;
11173;SDS011;5643;50.856;12.088;2022-07-04T09:25:09;2.28;;;0.73;;
11173;SDS011;5643;50.856;12.088;2022-07-04T09:27:42;0.68;;;0.60;;
11173;SDS011;5643;50.856;12.088;2022-07-04T09:30:13;0.65;;;0.63;;
11173;SDS011;5643;50.856;12.088;2022-07-04T09:32:42;0.63;;;0.30;;
11173;SDS011;5643;50.856;12.088;2022-07-04T09:35:12;2.13;;;0.90;;
11173;SDS011;5643;50.856;12.088;2022-07-04T09:37:43;0.55;;;0.52;;
11173;SDS011;5643;50.856;12.088;2022-07-04T09:40:20;1.17;;;0.98;;
11173;SDS011;5643;50.856;12.088;2022-07-04T09:42:51;1.35;;;0.70;;
11173;SDS011;5643;50.856;12.088;2022-07-04T09:45:19;0.50;;;0.50;;
11173;SDS011;5643;50.856;12.088;2022-07-04T09:47:50;0.75;;;0.50;;
11173;SDS011;5643;50.856;12.088;2022-07-04T09:50:21;0.70;;;0.65;;
11173;SDS011;5643;50.856;12.088;2022-07-04T09:52:51;0.77;;;0.60;;
11173;SDS011;5643;50.856;12.088;2022-07-04T09:55:21;1.52;;;0.63;;
11173;SDS011;5643;50.856;12.088;2022-07-04T09:57:53;1.13;;;0.57;;
11173;SDS011;5643;50.856;12.088;2022-07-04T10:00:26;0.73;;;0.60;;
11173;SDS011;5643;50.856;12.088;2022-07-04T10:02:56;0.73;;;0.60;;
11173;SDS011;5643;50.856;12.088;2022-07-04T10:05:25;0.40;;;0.40;;
11173;SDS011;5643;50.856;12.088;2022-07-04T10:07:54;0.60;;;0.60;;
11173;SDS011;5643;50.856;12.088;2022-07-04T10:10:24;0.68;;;0.50;;
11173;SDS011;5643;50.856;12.088;2022-07-04T10:12:59;0.50;;;0.50;;
11173;SDS011;5643;50.856;12.088;2022-07-04T10:15:29;1.42;;;0.50;;
11173;SDS011;5643;50.856;12.088;2022-07-04T10:17:57;0.98;;;0.50;;
11173;SDS011;5643;50.856;12.088;2022-07-04T10:20:26;0.95;;;0.65;;
11173;SDS011;5643;50.856;12.088;2022-07-04T10:22:53;0.68;;;0.52;;
11173;SDS011;5643;50.856;12.088;2022-07-04T10:25:21;1.48;;;0.52;;
11173;SDS011;5643;50.856;12.088;2022-07-04T10:27:49;0.90;;;0.50;;
11173;SDS011;5643;50.856;12.088;2022-07-04T10:30:21;1.33;;;0.60;;
11173;SDS011;5643;50.856;12.088;2022-07-04T10:32:51;1.00;;;0.55;;
11173;SDS011;5643;50.856;12.088;2022-07-04T10:38:19;1.65;;;0.60;;
11173;SDS011;5643;50.856;12.088;2022-07-04T10:40:48;1.00;;;0.50;;
11173;SDS011;5643;50.856;12.088;2022-07-04T10:46:33;0.55;;;0.50;;
11173;SDS011;5643;50.856;12.088;2022-07-04T10:49:21;1.45;;;0.50;;
11173;SDS011;5643;50.856;12.088;2022-07-04T10:51:51;0.88;;;0.70;;
11173;SDS011;5643;50.856;12.088;2022-07-04T11:10:31;0.90;;;0.50;;
11173;SDS011;5643;50.856;12.088;2022-07-04T11:13:16;0.55;;;0.52;;
11173;SDS011;5643;50.856;12.088;2022-07-04T11:16:03;1.33;;;0.80;;
11173;SDS011;5643;50.856;12.088;2022-07-04T11:18:40;1.42;;;0.60;;
11173;SDS011;5643;50.856;12.088;2022-07-04T11:21:16;0.95;;;0.57;;
11173;SDS011;5643;50.856;12.088;2022-07-04T11:23:50;1.08;;;0.45;;
11173;SDS011;5643;50.856;12.088;2022-07-04T11:26:20;1.15;;;0.40;;
11173;SDS011;5643;50.856;12.088;2022-07-04T11:28:48;0.43;;;0.43;;
11173;SDS011;5643;50.856;12.088;2022-07-04T11:31:16;0.50;;;0.50;;
11173;SDS011;5643;50.856;12.088;2022-07-04T11:33:45;2.10;;;0.68;;
11173;SDS011;5643;50.856;12.088;2022-07-04T11:36:14;0.60;;;0.60;;
11173;SDS011;5643;50.856;12.088;2022-07-04T11:38:49;1.13;;;0.60;;
11173;SDS011;5643;50.856;12.088;2022-07-04T11:41:21;0.47;;;0.47;;
11173;SDS011;5643;50.856;12.088;2022-07-04T11:44:07;3.42;;;0.60;;
11173;SDS011;5643;50.856;12.088;2022-07-04T11:47:01;0.50;;;0.50;;
11173;SDS011;5643;50.856;12.088;2022-07-04T11:49:32;0.63;;;0.60;;
11173;SDS011;5643;50.856;12.088;2022-07-04T11:52:00;1.23;;;0.60;;
11173;SDS011;5643;50.856;12.088;2022-07-04T11:54:31;0.75;;;0.40;;
11173;SDS011;5643;50.856;12.088;2022-07-04T11:57:11;0.73;;;0.40;;
11173;SDS011;5643;50.856;12.088;2022-07-04T11:59:41;0.57;;;0.50;;
11173;SDS011;5643;50.856;12.088;2022-07-04T12:02:11;0.50;;;0.50;;
11173;SDS011;5643;50.856;12.088;2022-07-04T12:04:40;1.10;;;0.63;;
11173;SDS011;5643;50.856;12.088;2022-07-04T12:07:09;0.45;;;0.40;;
11173;SDS011;5643;50.856;12.088;2022-07-04T12:09:41;0.47;;;0.40;;
11173;SDS011;5643;50.856;12.088;2022-07-04T12:12:10;0.70;;;0.57;;
11173;SDS011;5643;50.856;12.088;2022-07-04T12:14:39;0.63;;;0.60;;
11173;SDS011;5643;50.856;12.088;2022-07-04T12:17:22;0.88;;;0.55;;
11173;SDS011;5643;50.856;12.088;2022-07-04T12:19:55;0.43;;;0.43;;
11173;SDS011;5643;50.856;12.088;2022-07-04T12:22:25;0.43;;;0.35;;
11173;SDS011;5643;50.856;12.088;2022-07-04T12:24:59;1.10;;;0.60;;
11173;SDS011;5643;50.856;12.088;2022-07-04T12:27:28;1.25;;;0.60;;
11173;SDS011;5643;50.856;12.088;2022-07-04T12:29:56;0.93;;;0.70;;
11173;SDS011;5643;50.856;12.088;2022-07-04T12:38:04;0.93;;;0.68;;
11173;SDS011;5643;50.856;12.088;2022-07-04T12:40:35;0.60;;;0.60;;
11173;SDS011;5643;50.856;12.088;2022-07-04T12:43:04;1.00;;;0.70;;
11173;SDS011;5643;50.856;12.088;2022-07-04T12:45:42;1.15;;;0.52;;
11173;SDS011;5643;50.856;12.088;2022-07-04T12:48:14;1.63;;;0.60;;
11173;SDS011;5643;50.856;12.088;2022-07-04T12:50:47;1.20;;;0.60;;
11173;SDS011;5643;50.856;12.088;2022-07-04T12:53:15;0.68;;;0.60;;
11173;SDS011;5643;50.856;12.088;2022-07-04T12:55:46;0.90;;;0.70;;
11173;SDS011;5643;50.856;12.088;2022-07-04T12:58:14;0.93;;;0.88;;
11173;SDS011;5643;50.856;12.088;2022-07-04T13:00:42;0.60;;;0.60;;
11173;SDS011;5643;50.856;12.088;2022-07-04T13:03:09;0.85;;;0.85;;
11173;SDS011;5643;50.856;12.088;2022-07-04T13:05:37;0.93;;;0.68;;
11173;SDS011;5643;50.856;12.088;2022-07-04T13:08:07;1.08;;;0.75;;
11173;SDS011;5643;50.856;12.088;2022-07-04T13:10:35;1.70;;;0.70;;
11173;SDS011;5643;50.856;12.088;2022-07-04T13:13:08;1.73;;;0.88;;
11173;SDS011;5643;50.856;12.088;2022-07-04T13:15:35;0.98;;;0.70;;
11173;SDS011;5643;50.856;12.088;2022-07-04T13:18:03;0.75;;;0.60;;
11173;SDS011;5643;50.856;12.088;2022-07-04T13:20:31;0.93;;;0.90;;
11173;SDS011;5643;50.856;12.088;2022-07-04T13:22:58;0.82;;;0.75;;
11173;SDS011;5643;50.856;12.088;2022-07-04T13:25:26;1.30;;;0.80;;
11173;SDS011;5643;50.856;12.088;2022-07-04T13:27:54;1.05;;;0.70;;
11173;SDS011;5643;50.856;12.088;2022-07-04T13:30:23;0.70;;;0.70;;
11173;SDS011;5643;50.856;12.088;2022-07-04T13:32:51;2.85;;;0.93;;
11173;SDS011;5643;50.856;12.088;2022-07-04T13:35:19;1.27;;;0.80;;
11173;SDS011;5643;50.856;12.088;2022-07-04T13:37:47;1.70;;;0.90;;
11173;SDS011;5643;50.856;12.088;2022-07-04T13:40:14;0.73;;;0.70;;
11173;SDS011;5643;50.856;12.088;2022-07-04T13:42:42;0.95;;;0.70;;
11173;SDS011;5643;50.856;12.088;2022-07-04T13:45:26;1.23;;;1.00;;
11173;SDS011;5643;50.856;12.088;2022-07-04T13:47:55;0.90;;;0.70;;
11173;SDS011;5643;50.856;12.088;2022-07-04T13:50:22;0.70;;;0.70;;
11173;SDS011;5643;50.856;12.088;2022-07-04T13:52:50;0.65;;;0.50;;
11173;SDS011;5643;50.856;12.088;2022-07-04T13:55:17;1.15;;;0.90;;
11173;SDS011;5643;50.856;12.088;2022-07-04T13:57:45;0.60;;;0.60;;
11173;SDS011;5643;50.856;12.088;2022-07-04T14:00:16;1.42;;;0.80;;
11173;SDS011;5643;50.856;12.088;2022-07-04T14:02:45;0.93;;;0.73;;
11173;SDS011;5643;50.856;12.088;2022-07-04T14:05:13;0.70;;;0.70;;
11173;SDS011;5643;50.856;12.088;2022-07-04T14:07:40;0.68;;;0.60;;
11173;SDS011;5643;50.856;12.088;2022-07-04T14:10:09;0.60;;;0.60;;
11173;SDS011;5643;50.856;12.088;2022-07-04T14:12:37;0.90;;;0.70;;
11173;SDS011;5643;50.856;12.088;2022-07-04T14:15:06;0.90;;;0.60;;
11173;SDS011;5643;50.856;12.088;2022-07-04T14:17:35;0.90;;;0.75;;
11173;SDS011;5643;50.856;12.088;2022-07-04T14:20:05;1.40;;;0.80;;
11173;SDS011;5643;50.856;12.088;2022-07-04T14:22:34;0.60;;;0.50;;
11173;SDS011;5643;50.856;12.088;2022-07-04T14:25:03;0.70;;;0.70;;
11173;SDS011;5643;50.856;12.088;2022-07-04T14:27:32;0.85;;;0.70;;
11173;SDS011;5643;50.856;12.088;2022-07-04T14:30:01;0.82;;;0.70;;
11173;SDS011;5643;50.856;12.088;2022-07-04T14:32:29;0.75;;;0.75;;
11173;SDS011;5643;50.856;12.088;2022-07-04T14:34:59;1.58;;;0.82;;
11173;SDS011;5643;50.856;12.088;2022-07-04T14:37:28;1.48;;;0.80;;
11173;SDS011;5643;50.856;12.088;2022-07-04T14:39:56;1.15;;;0.70;;
11173;SDS011;5643;50.856;12.088;2022-07-04T14:42:25;1.27;;;0.65;;
11173;SDS011;5643;50.856;12.088;2022-07-04T14:44:52;0.73;;;0.73;;
11173;SDS011;5643;50.856;12.088;2022-07-04T14:47:20;0.93;;;0.70;;
11173;SDS011;5643;50.856;12.088;2022-07-04T14:49:48;0.70;;;0.70;;
11173;SDS011;5643;50.856;12.088;2022-07-04T14:52:17;0.80;;;0.68;;
11173;SDS011;5643;50.856;12.088;2022-07-04T14:54:46;2.13;;;0.70;;
11173;SDS011;5643;50.856;12.088;2022-07-04T14:57:14;1.23;;;0.70;;
11173;SDS011;5643;50.856;12.088;2022-07-04T14:59:41;1.15;;;0.60;;
11173;SDS011;5643;50.856;12.088;2022-07-04T15:02:09;2.42;;;0.60;;
11173;SDS011;5643;50.856;12.088;2022-07-04T15:04:37;0.88;;;0.60;;
11173;SDS011;5643;50.856;12.088;2022-07-04T15:07:06;1.20;;;0.80;;
11173;SDS011;5643;50.856;12.088;2022-07-04T15:09:34;0.60;;;0.60;;
11173;SDS011;5643;50.856;12.088;2022-07-04T15:12:03;1.02;;;0.70;;
11173;SDS011;5643;50.856;12.088;2022-07-04T15:14:31;1.33;;;0.60;;
11173;SDS011;5643;50.856;12.088;2022-07-04T15:16:58;0.82;;;0.65;;
11173;SDS011;5643;50.856;12.088;2022-07-04T15:19:26;1.50;;;0.80;;
11173;SDS011;5643;50.856;12.088;2022-07-04T15:21:54;0.70;;;0.70;;
11173;SDS011;5643;50.856;12.088;2022-07-04T15:24:39;0.98;;;0.50;;
11173;SDS011;5643;50.856;12.088;2022-07-04T15:27:08;0.85;;;0.73;;
11173;SDS011;5643;50.856;12.088;2022-07-04T15:29:36;0.45;;;0.43;;